Time;durP1;ratioP1;P1;durP2;ratioP2;P2;SDS_P1;SDS_P2;PMS_P1;PMS_P2;Temp;Humidity;BMP_temperature;BMP_pressure;BME280_temperature;BME280_humidity;BME280_pressure;Samples;Min_cycle;Max_cycle;Signal;HPM_P1;HPM_P2
2022/05/24 00:00:12;;;;;;;6.25;1.92;;;;;;;17.02;16.73;98159.13;4997982;28;20041;-76
2022/05/24 00:02:39;;;;;;;4.47;2.03;;;;;;;16.92;16.99;98174.97;5013432;28;20530;-75
2022/05/24 00:05:08;;;;;;;4.55;2.08;;;;;;;17.00;17.14;98174.63;4997866;28;20062;-76
2022/05/24 00:07:35;;;;;;;8.35;2.38;;;;;;;17.12;17.07;98180.78;4982159;28;20037;-75
2022/05/24 00:10:01;;;;;;;12.45;2.47;;;;;;;16.98;17.23;98174.84;4997938;28;20050;-75
2022/05/24 00:12:29;;;;;;;7.50;2.33;;;;;;;16.94;17.53;98179.06;4966301;28;20069;-75
2022/05/24 00:17:39;;;;;;;10.15;2.70;;;;;;;16.92;17.83;98181.16;5000629;28;20061;-76
2022/05/24 00:20:06;;;;;;;14.23;3.00;;;;;;;16.98;17.98;98182.06;4997271;28;20061;-77
2022/05/24 00:22:33;;;;;;;6.20;2.92;;;;;;;16.69;18.28;98178.47;5012390;28;20057;-79
2022/05/24 00:25:01;;;;;;;12.82;2.83;;;;;;;16.59;18.64;98184.38;4980636;28;20519;-76
2022/05/24 00:27:29;;;;;;;10.48;2.90;;;;;;;16.66;18.84;98185.13;4998385;28;20196;-77
2022/05/24 00:29:55;;;;;;;7.82;2.53;;;;;;;16.58;19.11;98180.09;4980865;28;20041;-76
2022/05/24 00:32:21;;;;;;;9.40;3.03;;;;;;;16.68;19.03;98180.31;4998377;28;20045;-76
2022/05/24 00:34:47;;;;;;;8.55;3.08;;;;;;;16.66;19.02;98179.75;4997433;28;20050;-75
2022/05/24 00:37:13;;;;;;;7.75;2.67;;;;;;;16.49;19.37;98180.66;4996633;28;20060;-75
2022/05/24 00:39:38;;;;;;;9.93;3.17;;;;;;;16.49;19.16;98172.59;4996444;28;20041;-75
2022/05/24 00:42:12;;;;;;;5.70;2.78;;;;;;;16.80;19.15;98191.06;4995890;28;20072;-76
2022/05/24 00:44:40;;;;;;;10.80;3.42;;;;;;;16.49;19.28;98184.16;5012294;28;20511;-76
2022/05/24 00:47:18;;;;;;;12.48;2.60;;;;;;;16.32;19.39;98163.56;4979933;28;20058;-75
2022/05/24 00:49:50;;;;;;;5.07;2.20;;;;;;;16.39;19.56;98185.75;4996540;28;20049;-76
2022/05/24 00:52:40;;;;;;;7.35;2.80;;;;;;;16.49;19.48;98199.41;4997036;28;20053;-76
2022/05/24 00:55:08;;;;;;;10.63;3.08;;;;;;;16.35;19.66;98190.72;4995234;28;20491;-76
2022/05/24 00:57:45;;;;;;;8.13;2.80;;;;;;;16.48;19.67;98189.75;5012509;28;20058;-75
2022/05/24 01:00:15;;;;;;;9.15;2.65;;;;;;;16.38;19.30;98182.22;5012650;28;20482;-75
2022/05/24 01:02:42;;;;;;;15.43;3.33;;;;;;;16.26;19.48;98184.06;5013005;28;20590;-76
2022/05/24 01:05:11;;;;;;;12.32;2.60;;;;;;;16.31;19.20;98173.47;4980244;28;20073;-76
2022/05/24 01:07:41;;;;;;;14.35;2.67;;;;;;;16.21;19.18;98188.47;4982391;28;20128;-76
2022/05/24 01:10:10;;;;;;;10.52;2.70;;;;;;;16.42;18.75;98191.44;4979347;28;20092;-76
2022/05/24 01:12:50;;;;;;;8.40;2.40;;;;;;;16.46;18.83;98191.81;4994877;28;20096;-76
2022/05/24 01:15:17;;;;;;;11.25;3.33;;;;;;;16.41;18.93;98197.03;5011080;28;20046;-76
2022/05/24 01:17:43;;;;;;;7.55;2.78;;;;;;;16.41;18.67;98183.63;4993953;28;20077;-76
2022/05/24 01:20:13;;;;;;;9.20;1.95;;;;;;;16.43;18.59;98192.25;4994007;28;20092;-76
2022/05/24 01:23:03;;;;;;;5.65;1.92;;;;;;;16.66;18.54;98195.84;4977395;28;20148;-77
2022/05/24 01:25:44;;;;;;;6.53;2.10;;;;;;;16.57;18.70;98191.88;5010243;28;20282;-77
2022/05/24 01:28:22;;;;;;;6.78;2.25;;;;;;;16.59;18.36;98184.38;4997110;28;20152;-76
2022/05/24 01:30:49;;;;;;;6.72;1.60;;;;;;;16.38;18.71;98179.56;4996934;28;20478;-76
2022/05/24 01:36:10;;;;;;;6.47;1.83;;;;;;;16.40;18.68;98188.19;4996494;28;20038;-77
2022/05/24 01:38:50;;;;;;;7.30;2.70;;;;;;;16.74;18.84;98183.94;4978994;28;20042;-76
2022/05/24 01:41:22;;;;;;;6.13;2.30;;;;;;;16.69;18.43;98165.06;4994526;28;20508;-76
2022/05/24 01:43:50;;;;;;;10.20;1.85;;;;;;;16.63;18.80;98179.38;5012075;28;20364;-75
2022/05/24 01:46:21;;;;;;;5.50;1.88;;;;;;;16.67;18.60;98192.09;4997697;28;20139;-75
2022/05/24 01:48:57;;;;;;;5.18;2.00;;;;;;;16.69;18.84;98192.69;4979578;28;20053;-73
2022/05/24 01:51:28;;;;;;;9.57;2.03;;;;;;;16.68;18.97;98195.59;5012292;28;20065;-76
2022/05/24 01:53:57;;;;;;;6.47;1.80;;;;;;;16.65;19.14;98188.81;4980178;28;20436;-76
2022/05/24 01:56:28;;;;;;;5.88;1.88;;;;;;;16.71;19.36;98200.50;4996551;28;20074;-78
2022/05/24 01:58:59;;;;;;;4.22;2.05;;;;;;;16.80;18.82;98199.91;4996063;28;20080;-78
2022/05/24 02:01:33;;;;;;;;;;;;;;;16.90;19.05;98198.53;5012146;28;20080;-75
2022/05/24 02:04:02;;;;;;;4.95;2.13;;;;;;;16.77;19.19;98204.94;4994810;28;20155;-75
2022/05/24 02:06:29;;;;;;;7.03;2.08;;;;;;;16.66;19.58;98201.19;4995577;28;20054;-76
2022/05/24 02:08:55;;;;;;;16.48;8.35;;;;;;;16.71;19.48;98201.28;5011383;28;20053;-76
2022/05/24 02:11:28;;;;;;;9.52;5.07;;;;;;;16.71;19.76;98179.06;4979487;28;20466;-75
2022/05/24 02:13:58;;;;;;;14.02;2.63;;;;;;;16.85;19.90;98197.34;4994681;28;20583;-76
2022/05/24 02:16:26;;;;;;;3.60;2.33;;;;;;;16.92;20.09;98202.59;5011867;28;20530;-80
2022/05/24 02:18:54;;;;;;;5.00;2.17;;;;;;;16.82;19.90;98205.84;4995741;28;20045;-77
2022/05/24 02:21:23;;;;;;;4.50;2.20;;;;;;;16.67;19.89;98194.78;4997003;28;20141;-76
2022/05/24 02:23:50;;;;;;;4.18;2.10;;;;;;;16.83;19.99;98204.00;5011847;28;20141;-76
2022/05/24 02:26:18;;;;;;;4.45;1.90;;;;;;;16.93;20.44;98206.91;4994303;28;20474;-76
2022/05/24 02:28:49;;;;;;;8.25;2.20;;;;;;;17.09;20.42;98191.97;4994286;28;20056;-76
2022/05/24 02:31:18;;;;;;;25.48;2.60;;;;;;;17.14;19.93;98203.66;5010285;28;20042;-76
2022/05/24 02:33:45;;;;;;;6.65;2.30;;;;;;;17.16;19.98;98204.22;4994143;28;20104;-77
2022/05/24 02:36:12;;;;;;;4.50;2.15;;;;;;;17.22;19.86;98215.91;5010239;28;20041;-77
2022/05/24 02:38:38;;;;;;;32.08;12.50;;;;;;;17.17;20.30;98205.03;4993507;28;20053;-77
2022/05/24 02:43:49;;;;;;;11.80;3.30;;;;;;;17.25;20.21;98207.38;4996571;28;20058;-76
2022/05/24 02:46:19;;;;;;;9.75;2.70;;;;;;;17.46;20.44;98204.94;4993904;28;20081;-76
2022/05/24 02:48:45;;;;;;;7.32;2.13;;;;;;;17.36;20.47;98209.25;5027028;28;20110;-76
2022/05/24 02:51:12;;;;;;;7.63;2.25;;;;;;;17.36;20.47;98204.66;4994143;28;20668;-77
2022/05/24 02:53:41;;;;;;;7.72;2.30;;;;;;;17.41;20.68;98203.97;5011037;28;20414;-75
2022/05/24 02:56:08;;;;;;;4.55;2.08;;;;;;;17.31;20.85;98206.44;5010231;28;20057;-76
2022/05/24 02:58:36;;;;;;;10.68;2.40;;;;;;;17.40;20.71;98210.38;5011752;28;20077;-76
2022/05/24 03:01:03;;;;;;;11.93;2.33;;;;;;;17.48;20.82;98213.53;4994593;28;20089;-77
2022/05/24 03:03:28;;;;;;;5.60;2.03;;;;;;;17.38;20.67;98217.84;4962227;28;20565;-76
2022/05/24 03:05:54;;;;;;;9.32;2.08;;;;;;;17.38;19.59;98218.69;4978714;28;20136;-76
2022/05/24 03:11:05;;;;;;;7.18;1.98;;;;;;;17.61;20.16;98215.16;4996375;28;20049;-76
2022/05/24 03:16:17;;;;;;;6.90;2.10;;;;;;;17.77;19.24;98225.16;5009731;28;20049;-77
2022/05/24 03:18:43;;;;;;;8.55;1.95;;;;;;;17.82;19.10;98214.53;4996778;28;20061;-76
2022/05/24 03:21:09;;;;;;;10.40;1.85;;;;;;;17.98;18.99;98219.13;4996277;28;20052;-77
2022/05/24 03:23:35;;;;;;;4.07;2.00;;;;;;;18.08;19.25;98219.34;4994148;28;20053;-77
2022/05/24 03:26:04;;;;;;;9.48;2.55;;;;;;;18.16;18.70;98217.06;4977896;28;20145;-75
2022/05/24 03:28:30;;;;;;;8.68;2.20;;;;;;;18.17;18.49;98213.31;4961018;28;20165;-75
2022/05/24 03:30:56;;;;;;;12.30;2.58;;;;;;;18.29;18.44;98210.59;4993087;28;20056;-75
2022/05/24 03:33:22;;;;;;;9.95;2.13;;;;;;;18.27;18.30;98218.06;4977273;28;20419;-76
2022/05/24 03:35:48;;;;;;;3.72;1.90;;;;;;;18.21;18.33;98213.66;4977486;28;20111;-76
2022/05/24 03:38:13;;;;;;;7.55;1.88;;;;;;;18.02;18.47;98213.03;4977294;28;20081;-76
2022/05/24 03:40:41;;;;;;;6.55;2.95;;;;;;;18.05;18.55;98211.78;4994735;28;20041;-76
2022/05/24 03:43:13;;;;;;;5.22;2.25;;;;;;;18.27;18.59;98210.00;4993463;28;20482;-75
2022/05/24 03:45:41;;;;;;;14.65;2.10;;;;;;;18.05;18.84;98192.97;4993384;28;20141;-76
2022/05/24 03:48:07;;;;;;;2.95;1.80;;;;;;;18.22;19.04;98209.94;4993211;28;20503;-77
2022/05/24 03:50:33;;;;;;;4.88;1.80;;;;;;;18.25;18.76;98214.84;4993164;28;20053;-76
2022/05/24 03:52:59;;;;;;;7.32;2.00;;;;;;;18.25;18.59;98199.50;4992868;28;20050;-76
2022/05/24 03:55:26;;;;;;;7.45;1.90;;;;;;;18.38;18.37;98223.44;4992962;28;20061;-76
2022/05/24 03:58:02;;;;;;;6.80;1.85;;;;;;;18.46;18.44;98214.16;4993536;28;20061;-77
2022/05/24 04:00:39;;;;;;;3.72;1.60;;;;;;;18.74;17.93;98210.59;5011849;28;20137;-74
2022/05/24 04:03:07;;;;;;;3.50;2.05;;;;;;;18.62;18.41;98202.59;4992563;28;20128;-75
2022/05/24 04:05:34;;;;;;;19.10;2.40;;;;;;;18.61;18.37;98205.53;4992813;28;20038;-77
2022/05/24 04:08:00;;;;;;;4.55;1.52;;;;;;;18.48;18.16;98195.09;4993100;28;20042;-74
2022/05/24 04:10:30;;;;;;;6.65;2.20;;;;;;;18.60;17.97;98182.38;4993037;28;20187;-77
2022/05/24 04:12:56;;;;;;;5.60;2.25;;;;;;;18.47;17.81;98185.41;5009915;28;20050;-77
2022/05/24 04:15:23;;;;;;;8.50;2.47;;;;;;;18.22;17.99;98172.31;4989790;28;20495;-77
2022/05/24 04:17:53;;;;;;;3.55;2.05;;;;;;;18.02;18.12;98182.69;4995322;28;20157;-78
2022/05/24 04:20:23;;;;;;;6.18;1.90;;;;;;;18.17;18.37;98209.84;4993353;28;20566;-78
2022/05/24 04:22:59;;;;;;;5.68;2.05;;;;;;;18.27;18.08;98189.34;4994298;28;20045;-77
2022/05/24 04:25:25;;;;;;;5.45;2.03;;;;;;;18.22;18.02;98207.25;4993593;28;20459;-78
2022/05/24 04:27:54;;;;;;;3.22;1.98;;;;;;;18.12;17.75;98221.31;5011270;28;20053;-77
2022/05/24 04:30:23;;;;;;;7.70;2.60;;;;;;;18.11;17.88;98218.88;5011925;28;20065;-76
2022/05/24 04:32:52;;;;;;;4.25;2.58;;;;;;;18.19;17.89;98224.66;4995225;28;20065;-78
2022/05/24 04:35:20;;;;;;;11.27;4.68;;;;;;;18.37;18.02;98212.91;5010390;28;20158;-76
2022/05/24 04:37:48;;;;;;;7.10;2.30;;;;;;;18.16;18.15;98217.06;5010101;28;20050;-76
2022/05/24 04:40:17;;;;;;;7.53;2.72;;;;;;;18.40;18.46;98217.81;4979289;28;20054;-77
2022/05/24 04:42:43;;;;;;;8.15;2.55;;;;;;;18.53;18.06;98203.25;4977190;28;20045;-76
2022/05/24 04:45:11;;;;;;;5.22;1.90;;;;;;;18.69;17.57;98211.31;4959503;28;20100;-75
2022/05/24 04:47:37;;;;;;;10.68;2.30;;;;;;;18.69;17.55;98216.69;5008774;28;20046;-75
2022/05/24 04:50:09;;;;;;;4.85;2.13;;;;;;;18.91;17.25;98217.63;5009854;28;20116;-75
2022/05/24 04:52:37;;;;;;;7.68;2.03;;;;;;;18.73;17.65;98206.28;5009537;28;20646;-75
2022/05/24 04:55:06;;;;;;;10.23;2.28;;;;;;;18.75;17.32;98204.97;5028112;28;20099;-76
2022/05/24 04:57:33;;;;;;;6.05;1.80;;;;;;;18.69;17.04;98203.25;5010736;28;20057;-76
2022/05/24 05:00:14;;;;;;;5.90;2.35;;;;;;;19.04;16.78;98192.22;5011257;28;20111;-76
2022/05/24 05:02:41;;;;;;;9.50;2.05;;;;;;;19.05;16.38;98204.63;5013013;28;20341;-76
2022/05/24 05:05:07;;;;;;;4.88;1.80;;;;;;;19.28;16.32;98199.88;4995618;28;20053;-76
2022/05/24 05:07:33;;;;;;;4.75;1.88;;;;;;;19.34;16.12;98196.19;4981086;28;20501;-76
2022/05/24 05:09:59;;;;;;;7.80;1.85;;;;;;;19.51;15.55;98191.56;4966642;28;20045;-76
2022/05/24 05:12:26;;;;;;;7.20;2.05;;;;;;;19.48;15.24;98186.69;5014395;28;20054;-76
2022/05/24 05:14:53;;;;;;;6.03;1.90;;;;;;;19.84;14.63;98194.16;5016679;28;20038;-75
2022/05/24 05:17:19;;;;;;;2.88;1.55;;;;;;;19.72;13.92;98195.34;5018098;28;20045;-77
2022/05/24 05:19:45;;;;;;;4.22;1.67;;;;;;;19.76;13.61;98191.06;5031782;28;20053;-77
2022/05/24 05:22:12;;;;;;;4.00;1.80;;;;;;;19.84;13.39;98198.72;4998686;28;20495;-75
2022/05/24 05:24:38;;;;;;;8.27;1.88;;;;;;;19.85;13.74;98190.38;5014549;28;20048;-76
2022/05/24 05:27:04;;;;;;;4.45;2.17;;;;;;;20.10;13.53;98182.56;5013662;28;20550;-76
2022/05/24 05:32:30;;;;;;;7.13;1.50;;;;;;;20.10;13.04;98181.75;5010891;28;20045;-75
2022/05/24 05:34:58;;;;;;;2.40;1.42;;;;;;;20.24;13.18;98187.56;5013488;28;20033;-77
2022/05/24 05:37:28;;;;;;;6.75;1.80;;;;;;;20.36;13.19;98185.56;5013410;28;20136;-76
2022/05/24 05:39:54;;;;;;;6.20;1.60;;;;;;;20.22;13.20;98184.34;5010620;28;20048;-76
2022/05/24 05:42:20;;;;;;;6.28;1.83;;;;;;;20.42;13.31;98179.16;4996825;28;20050;-76
2022/05/24 05:44:49;;;;;;;7.10;1.70;;;;;;;20.66;13.11;98193.91;4997703;28;20042;-76
2022/05/24 05:47:18;;;;;;;4.60;1.65;;;;;;;20.77;13.14;98188.31;5017307;28;20050;-76
2022/05/24 05:49:45;;;;;;;6.95;1.63;;;;;;;20.79;12.82;98180.78;5012775;28;20045;-76
2022/05/24 05:52:11;;;;;;;2.97;1.50;;;;;;;20.93;12.56;98168.50;5013195;28;20041;-76
2022/05/24 05:54:38;;;;;;;4.43;1.50;;;;;;;21.15;12.52;98190.00;4996176;28;20384;-77
2022/05/24 05:57:07;;;;;;;8.27;1.50;;;;;;;21.37;12.26;98196.88;4994774;28;20054;-75
2022/05/24 05:59:34;;;;;;;4.22;1.70;;;;;;;21.36;11.98;98194.44;4978260;28;20061;-75
2022/05/24 06:02:03;;;;;;;9.57;1.42;;;;;;;21.24;11.91;98189.25;5011514;28;20487;-76
2022/05/24 06:04:29;;;;;;;4.28;1.40;;;;;;;21.29;11.63;98212.75;5011976;28;20141;-76
2022/05/24 06:06:54;;;;;;;6.13;1.50;;;;;;;21.25;11.74;98193.56;4993984;28;20129;-76
2022/05/24 06:09:20;;;;;;;8.27;1.45;;;;;;;21.55;12.14;98207.25;4993692;28;20054;-76
2022/05/24 06:11:48;;;;;;;4.30;1.40;;;;;;;21.61;11.73;98208.91;4995302;28;20050;-76
2022/05/24 06:14:13;;;;;;;5.82;1.50;;;;;;;21.83;11.52;98197.94;4977238;28;20052;-77
2022/05/24 06:16:39;;;;;;;9.35;1.60;;;;;;;22.12;11.15;98204.53;4977371;28;20072;-76
2022/05/24 06:19:06;;;;;;;2.78;1.40;;;;;;;22.31;11.35;98191.31;4993087;28;20423;-76
2022/05/24 06:21:34;;;;;;;8.00;1.60;;;;;;;22.48;11.32;98197.28;4977617;28;20076;-76
2022/05/24 06:24:05;;;;;;;7.93;1.52;;;;;;;22.62;10.77;98191.09;4994729;28;20125;-75
2022/05/24 06:26:32;;;;;;;10.48;1.95;;;;;;;22.65;10.97;98204.09;4994496;28;20077;-76
2022/05/24 06:28:58;;;;;;;8.18;1.58;;;;;;;22.46;11.18;98199.44;5027062;28;20045;-76
2022/05/24 06:31:25;;;;;;;9.00;1.48;;;;;;;22.56;10.96;98194.88;5010439;28;20042;-76
2022/05/24 06:33:52;;;;;;;7.35;1.42;;;;;;;22.53;11.28;98165.66;4993617;28;20038;-77
2022/05/24 06:36:26;;;;;;;5.72;1.50;;;;;;;22.41;11.07;98173.19;5010050;28;20092;-76
2022/05/24 06:38:52;;;;;;;6.05;1.40;;;;;;;22.63;10.72;98202.75;4992994;28;20050;-76
2022/05/24 06:41:21;;;;;;;6.80;1.60;;;;;;;22.70;10.67;98185.16;4993052;28;20077;-77
2022/05/24 06:43:46;;;;;;;6.28;1.30;;;;;;;22.47;10.98;98187.53;5009542;28;20053;-76
2022/05/24 06:46:14;;;;;;;6.43;1.50;;;;;;;22.49;11.22;98191.63;5009814;28;20042;-76
2022/05/24 06:48:43;;;;;;;7.00;1.67;;;;;;;22.63;11.24;98190.00;4993789;28;20049;-76
2022/05/24 06:51:11;;;;;;;6.60;1.73;;;;;;;22.44;11.05;98134.78;5009048;28;20058;-76
2022/05/24 06:53:38;;;;;;;8.75;1.70;;;;;;;22.92;11.01;98193.00;4976532;28;20053;-76
2022/05/24 06:56:05;;;;;;;2.45;1.42;;;;;;;22.79;10.94;98193.53;5008542;28;20084;-76
2022/05/24 06:58:31;;;;;;;6.10;1.50;;;;;;;22.83;10.71;98192.72;4993289;28;20038;-76
2022/05/24 07:03:42;;;;;;;8.23;1.40;;;;;;;22.78;10.66;98197.34;5010622;28;20041;-76
2022/05/24 07:06:12;;;;;;;4.90;1.67;;;;;;;22.86;10.45;98196.78;4978051;28;20052;-76
2022/05/24 07:08:45;;;;;;;5.00;1.40;;;;;;;23.22;10.48;98212.72;4977682;28;20041;-75
2022/05/24 07:11:12;;;;;;;5.15;1.40;;;;;;;23.06;10.16;98200.28;4992544;28;20052;-76
2022/05/24 07:13:45;;;;;;;8.88;1.63;;;;;;;23.12;10.26;98214.66;5009223;28;20068;-75
2022/05/24 07:16:13;;;;;;;3.90;1.60;;;;;;;22.77;9.07;98209.25;4977583;28;20109;-76
2022/05/24 07:18:39;;;;;;;11.55;1.70;;;;;;;22.43;9.46;98192.69;5009619;28;20038;-69
2022/05/24 07:21:11;;;;;;;8.70;1.80;;;;;;;22.35;9.53;98162.63;4975830;28;20050;-70
2022/05/24 07:23:38;;;;;;;8.63;1.60;;;;;;;22.63;9.06;98203.53;4992501;28;20049;-72
2022/05/24 07:26:15;;;;;;;17.60;1.88;;;;;;;22.81;9.21;98183.25;4991779;28;20049;-70
2022/05/24 07:28:41;;;;;;;8.55;1.58;;;;;;;22.67;8.46;98207.34;5009464;28;20042;-69
2022/05/24 07:31:22;;;;;;;8.05;1.65;;;;;;;22.57;8.67;98207.31;5008341;28;20052;-69
2022/05/24 07:33:47;;;;;;;10.43;1.83;;;;;;;22.30;9.00;98203.19;5008446;28;20096;-69
2022/05/24 07:36:14;;;;;;;12.90;1.80;;;;;;;22.16;8.82;98189.38;5007746;28;20050;-70
2022/05/24 07:38:39;;;;;;;4.97;1.33;;;;;;;22.32;9.09;98201.03;5007807;28;20073;-71
2022/05/24 07:46:34;;;;;;;10.55;1.67;;;;;;;22.39;9.56;98172.66;4995848;28;20514;-70
2022/05/24 07:49:00;;;;;;;11.52;1.65;;;;;;;22.76;9.77;98216.56;4972801;28;20047;-71
2022/05/24 07:51:26;;;;;;;21.73;1.95;;;;;;;22.75;9.83;98216.81;4989031;28;20108;-69
2022/05/24 07:53:53;;;;;;;5.80;1.77;;;;;;;22.66;10.00;98202.22;4972060;28;20042;-68
2022/05/24 07:56:19;;;;;;;6.95;1.67;;;;;;;22.73;9.96;98210.84;4955514;28;20500;-68
2022/05/24 07:58:46;;;;;;;6.82;1.40;;;;;;;22.89;9.82;98234.16;4988017;28;20518;-66
2022/05/24 08:01:12;;;;;;;4.40;1.40;;;;;;;22.94;9.57;98228.75;4971987;28;20046;-68
2022/05/24 08:03:41;;;;;;;9.35;1.63;;;;;;;23.11;9.52;98238.19;4959070;28;20141;-72
2022/05/24 08:06:07;;;;;;;5.28;1.33;;;;;;;23.02;9.95;98234.41;4976106;28;20058;-67
2022/05/24 08:08:33;;;;;;;5.20;1.63;;;;;;;22.89;9.93;98247.69;4976357;28;20415;-68
2022/05/24 08:10:58;;;;;;;8.05;1.70;;;;;;;22.55;10.61;98241.16;4959860;28;20491;-66
2022/05/24 08:13:24;;;;;;;7.75;1.67;;;;;;;22.30;11.04;98246.47;4943164;28;20050;-67
2022/05/24 08:15:51;;;;;;;4.78;1.60;;;;;;;22.08;11.40;98249.38;4991601;28;20401;-67
2022/05/24 08:18:18;;;;;;;6.00;2.00;;;;;;;22.04;11.76;98251.00;4977428;28;20046;-66
2022/05/24 08:20:44;;;;;;;9.73;2.00;;;;;;;22.02;11.94;98253.16;4959603;28;20046;-66
2022/05/24 08:23:09;;;;;;;10.85;1.85;;;;;;;22.02;12.08;98250.44;4977023;28;20114;-67
2022/05/24 08:25:35;;;;;;;8.23;1.80;;;;;;;21.87;12.29;98254.97;4986714;28;20065;-67
2022/05/24 08:28:03;;;;;;;24.20;2.28;;;;;;;21.73;12.35;98239.22;5022222;28;20099;-67
2022/05/24 08:30:31;;;;;;;7.90;1.90;;;;;;;21.77;12.62;98268.44;5002971;28;20045;-67
2022/05/24 08:32:57;;;;;;;16.23;4.00;;;;;;;21.54;13.11;98254.22;5003222;28;20049;-80
2022/05/24 08:35:24;;;;;;;9.52;1.70;;;;;;;21.31;14.81;98267.34;5012468;28;20089;-76
2022/05/24 08:37:50;;;;;;;13.43;1.90;;;;;;;21.09;15.14;98288.22;4985286;28;20074;-74
2022/05/24 08:40:18;;;;;;;11.60;1.98;;;;;;;21.19;15.65;98294.50;5018402;28;20069;-75
2022/05/24 08:43:22;;;;;;;14.40;2.10;;;;;;;21.09;16.23;98307.13;4991639;28;20046;-77
2022/05/24 08:48:51;;;;;;;11.32;1.75;;;;;;;20.47;16.91;98303.22;4947928;28;20079;-78
2022/05/24 08:51:28;;;;;;;9.50;2.10;;;;;;;20.32;17.50;98289.59;4989132;28;20132;-80
2022/05/24 08:54:28;;;;;;;15.57;2.90;;;;;;;20.58;17.28;98327.38;5003388;28;20153;-78
2022/05/24 08:57:16;;;;;;;20.45;2.60;;;;;;;20.43;17.47;98335.31;4986538;28;20072;-77
2022/05/24 08:59:59;;;;;;;7.90;2.00;;;;;;;20.41;17.45;98333.91;4997800;28;20046;-78
2022/05/24 09:02:26;;;;;;;10.73;2.00;;;;;;;20.02;17.86;98331.25;5015564;28;20079;-77
2022/05/24 09:04:53;;;;;;;12.52;2.33;;;;;;;19.91;18.29;98342.97;5015640;28;20051;-76
2022/05/24 09:07:32;;;;;;;10.02;2.22;;;;;;;19.97;18.39;98363.53;4981135;28;20041;-73
2022/05/24 09:10:20;;;;;;;5.13;2.00;;;;;;;19.61;18.52;98353.31;5029532;28;20049;-72
2022/05/24 09:13:33;;;;;;;10.50;2.40;;;;;;;19.64;18.73;98347.44;4985964;28;20138;-72
2022/05/24 09:16:12;;;;;;;13.57;2.75;;;;;;;19.66;19.17;98368.72;4937875;28;20043;-73
2022/05/24 09:18:55;;;;;;;9.88;2.40;;;;;;;19.53;19.10;98369.88;4925985;28;20091;-73
2022/05/24 09:21:26;;;;;;;11.80;2.15;;;;;;;19.73;18.95;98370.19;4977143;28;20054;-73
2022/05/24 09:24:04;;;;;;;16.10;2.35;;;;;;;19.84;18.85;98373.84;5001475;28;20073;-73
2022/05/24 09:26:34;;;;;;;7.30;2.30;;;;;;;19.61;18.97;98374.03;5017739;28;20054;-72
2022/05/24 09:29:11;;;;;;;12.48;2.28;;;;;;;19.79;18.92;98396.16;4970385;28;20042;-72
2022/05/24 09:31:45;;;;;;;8.52;2.03;;;;;;;19.61;19.22;98404.50;5012343;28;20038;-73
2022/05/24 09:34:19;;;;;;;11.15;2.42;;;;;;;19.49;19.38;98389.47;4984163;28;20049;-72
2022/05/24 09:36:52;;;;;;;12.10;2.42;;;;;;;19.52;19.34;98389.81;4977696;28;20141;-73
2022/05/24 09:39:31;;;;;;;9.00;2.25;;;;;;;19.67;19.39;98400.81;5010247;28;20052;-73
2022/05/24 09:42:04;;;;;;;10.20;2.28;;;;;;;19.78;19.67;98418.78;4993081;28;20049;-73
2022/05/24 09:44:50;;;;;;;7.65;2.58;;;;;;;19.87;19.50;98403.81;4978212;28;20042;-73
2022/05/24 09:47:45;;;;;;;12.18;2.20;;;;;;;20.19;18.89;98424.78;5006267;28;20125;-73
2022/05/24 09:50:37;;;;;;;4.78;2.10;;;;;;;19.77;19.02;98351.66;4984212;28;20049;-73
2022/05/24 09:53:05;;;;;;;16.70;2.67;;;;;;;20.06;18.91;98417.84;4976836;28;20046;-73
2022/05/24 09:55:51;;;;;;;11.27;2.67;;;;;;;20.34;18.94;98433.91;4994107;28;20054;-73
2022/05/24 09:58:21;;;;;;;4.72;2.17;;;;;;;20.27;18.91;98427.84;5009555;28;20054;-72
2022/05/24 10:01:20;;;;;;;6.45;2.20;;;;;;;20.34;18.85;98438.47;4993063;28;20435;-74
2022/05/24 10:03:51;;;;;;;8.50;2.45;;;;;;;19.98;19.19;98424.47;4991990;28;20079;-72
2022/05/24 10:06:23;;;;;;;9.85;2.08;;;;;;;20.19;19.08;98433.66;4959516;28;20069;-72
2022/05/24 10:09:04;;;;;;;14.07;2.65;;;;;;;20.17;18.92;98452.00;4977028;28;20042;-72
2022/05/24 10:11:48;;;;;;;7.20;2.20;;;;;;;19.72;19.19;98427.84;4993465;28;20057;-72
2022/05/24 10:14:36;;;;;;;6.40;2.30;;;;;;;19.95;18.78;98435.75;4992915;28;20049;-73
2022/05/24 10:17:11;;;;;;;7.07;1.83;;;;;;;20.14;18.92;98457.06;4993715;28;20057;-74
2022/05/24 10:19:52;;;;;;;12.02;1.85;;;;;;;20.53;18.63;98451.41;4961485;28;20060;-75
2022/05/24 10:22:19;;;;;;;4.20;2.35;;;;;;;20.48;18.33;98447.84;4993602;28;20053;-75
2022/05/24 10:25:22;;;;;;;5.63;2.03;;;;;;;21.05;18.14;98459.91;4968708;28;20050;-74
2022/05/24 10:28:07;;;;;;;7.32;1.80;;;;;;;21.40;17.74;98469.16;4982066;28;20045;-78
2022/05/24 10:30:44;;;;;;;8.55;2.25;;;;;;;21.59;17.61;98467.72;4984638;28;20112;-78
2022/05/24 10:39:08;;;;;;;5.28;1.95;;;;;;;21.38;17.52;98459.69;4988811;28;20100;-78
2022/05/24 10:41:49;;;;;;;3.70;2.20;;;;;;;21.26;17.86;98476.06;4976070;28;20491;-78
2022/05/24 10:44:51;;;;;;;7.70;2.53;;;;;;;21.21;17.94;98473.31;4989544;28;20038;-78
2022/05/24 10:47:22;;;;;;;;;;;;;;;20.98;18.09;98479.00;4957818;28;20448;-77
2022/05/24 10:49:56;;;;;;;3.28;1.75;;;;;;;20.55;18.26;98468.16;4967639;28;20080;-78
2022/05/24 10:53:01;;;;;;;4.93;1.90;;;;;;;20.56;18.17;98482.47;4963210;28;20038;-77
2022/05/24 10:55:31;;;;;;;9.70;1.80;;;;;;;20.13;18.41;98450.00;4976965;28;20058;-77
2022/05/24 10:58:09;;;;;;;7.68;1.92;;;;;;;20.20;18.73;98494.63;4961644;28;20149;-77
2022/05/24 11:01:04;;;;;;;9.10;2.05;;;;;;;20.29;18.43;98500.41;4978652;28;20061;-76
2022/05/24 11:03:38;;;;;;;12.68;2.22;;;;;;;20.34;18.92;98495.94;4977769;28;20069;-77
2022/05/24 11:06:39;;;;;;;4.63;2.00;;;;;;;20.33;18.73;98488.09;5017751;28;20507;-76
2022/05/24 11:09:16;;;;;;;11.00;2.47;;;;;;;20.17;18.96;98489.75;5006472;28;20411;-76
2022/05/24 11:11:45;;;;;;;3.45;1.80;;;;;;;20.16;19.19;98503.47;4978373;28;20045;-77
2022/05/24 11:14:28;;;;;;;8.38;2.00;;;;;;;20.15;19.33;98504.50;4957393;28;20061;-74
2022/05/24 11:16:55;;;;;;;9.15;2.17;;;;;;;20.00;19.63;98507.78;4991529;28;20058;-75
2022/05/24 11:19:27;;;;;;;10.73;2.35;;;;;;;20.01;19.53;98502.13;4957687;28;20909;-77
2022/05/24 11:22:18;;;;;;;5.60;2.40;;;;;;;19.93;19.71;98494.44;4964482;28;20072;-77
2022/05/24 11:25:05;;;;;;;6.68;2.00;;;;;;;19.95;19.89;98507.69;5008858;28;20110;-77
2022/05/24 11:27:37;;;;;;;5.47;1.98;;;;;;;19.92;20.04;98518.94;4992084;28;20053;-78
2022/05/24 11:30:12;;;;;;;6.05;2.10;;;;;;;19.64;20.07;98492.06;4972712;28;20069;-76
2022/05/24 11:32:44;;;;;;;9.25;2.40;;;;;;;19.72;19.88;98508.66;4996245;28;20046;-77
2022/05/24 11:35:29;;;;;;;9.48;2.35;;;;;;;19.68;19.93;98496.72;4974145;28;20117;-76
2022/05/24 11:38:14;;;;;;;14.18;1.92;;;;;;;19.82;19.95;98518.75;4974972;28;20664;-76
2022/05/24 11:41:19;;;;;;;4.72;2.00;;;;;;;20.09;19.79;98536.78;5005913;28;20041;-76
2022/05/24 11:43:44;;;;;;;8.82;2.42;;;;;;;20.00;19.93;98537.41;4960570;28;20048;-76
2022/05/24 11:46:33;;;;;;;8.50;1.92;;;;;;;20.45;19.27;98529.25;4980934;28;20046;-76
2022/05/24 11:49:04;;;;;;;10.38;2.40;;;;;;;20.58;18.95;98528.88;5021157;28;20041;-75
2022/05/24 11:51:44;;;;;;;6.05;2.20;;;;;;;21.07;18.72;98536.03;5003879;28;20084;-75
2022/05/24 11:54:17;;;;;;;7.20;1.80;;;;;;;20.97;18.21;98536.72;5015349;28;20136;-76
2022/05/24 11:57:01;;;;;;;2.63;1.60;;;;;;;20.92;18.60;98535.81;5014039;28;20152;-75
2022/05/24 11:59:41;;;;;;;4.30;1.90;;;;;;;20.65;18.78;98526.84;4982590;28;20045;-75
2022/05/24 12:02:19;;;;;;;5.35;1.75;;;;;;;20.38;18.80;98552.88;4980034;28;20037;-75
2022/05/24 12:08:25;;;;;;;7.25;1.90;;;;;;;19.91;19.28;98549.66;5011010;28;20127;-75
2022/05/24 12:11:22;;;;;;;3.08;1.73;;;;;;;19.78;19.47;98552.66;5010328;28;20404;-75
2022/05/24 12:13:56;;;;;;;3.10;1.60;;;;;;;19.75;19.70;98567.44;4989253;28;20054;-75
2022/05/24 12:16:38;;;;;;;7.80;1.80;;;;;;;19.71;19.43;98560.09;4995294;28;20146;-75
2022/05/24 12:19:09;;;;;;;5.32;1.95;;;;;;;19.79;19.65;98557.81;4996185;28;20515;-76
2022/05/24 12:21:50;;;;;;;7.90;1.75;;;;;;;20.13;19.23;98568.63;4946680;28;20073;-75
2022/05/24 12:24:24;;;;;;;7.78;1.80;;;;;;;20.22;19.08;98577.97;4975463;28;20045;-74
2022/05/24 12:27:20;;;;;;;7.93;1.98;;;;;;;20.42;19.03;98575.59;4974643;28;20049;-75
2022/05/24 12:30:29;;;;;;;8.45;1.92;;;;;;;20.45;19.22;98585.88;4975533;28;20929;-75